sensor_id;sensor_type;location;lat;lon;timestamp;pressure;altitude;pressure_sealevel;temperature;humidity
3206;BME280;1615;53.602;11.418;2022-10-13T00:01:52;101678.41;;;10.62;100.00
3206;BME280;1615;53.602;11.418;2022-10-13T00:04:18;101675.63;;;10.57;100.00
3206;BME280;1615;53.602;11.418;2022-10-13T00:06:43;101681.13;;;10.57;100.00
3206;BME280;1615;53.602;11.418;2022-10-13T00:09:08;101678.91;;;10.54;100.00
3206;BME280;1615;53.602;11.418;2022-10-13T00:11:34;101667.41;;;10.52;100.00
3206;BME280;1615;53.602;11.418;2022-10-13T00:14:01;101676.13;;;10.44;100.00
3206;BME280;1615;53.602;11.418;2022-10-13T00:16:27;101670.66;;;10.44;100.00
3206;BME280;1615;53.602;11.418;2022-10-13T00:18:53;101661.06;;;10.41;100.00
3206;BME280;1615;53.602;11.418;2022-10-13T00:21:21;101671.22;;;10.41;100.00
3206;BME280;1615;53.602;11.418;2022-10-13T00:23:48;101663.25;;;10.39;100.00
3206;BME280;1615;53.602;11.418;2022-10-13T00:26:14;101654.50;;;10.37;100.00
3206;BME280;1615;53.602;11.418;2022-10-13T00:28:41;101611.66;;;10.11;100.00
3206;BME280;1615;53.602;11.418;2022-10-13T00:31:30;101649.84;;;10.48;100.00
3206;BME280;1615;53.602;11.418;2022-10-13T00:34:00;101643.28;;;10.54;100.00
3206;BME280;1615;53.602;11.418;2022-10-13T00:36:26;101644.66;;;10.61;100.00
3206;BME280;1615;53.602;11.418;2022-10-13T00:38:52;101549.47;;;10.12;100.00
3206;BME280;1615;53.602;11.418;2022-10-13T00:41:18;101617.50;;;10.60;100.00
3206;BME280;1615;53.602;11.418;2022-10-13T00:43:58;101632.88;;;10.76;100.00
3206;BME280;1615;53.602;11.418;2022-10-13T00:46:32;101632.34;;;10.79;100.00
3206;BME280;1615;53.602;11.418;2022-10-13T00:49:02;101637.25;;;10.82;100.00
3206;BME280;1615;53.602;11.418;2022-10-13T00:51:32;101634.53;;;10.82;100.00
3206;BME280;1615;53.602;11.418;2022-10-13T00:54:00;101623.00;;;10.75;100.00
3206;BME280;1615;53.602;11.418;2022-10-13T00:56:26;101638.38;;;10.81;100.00
3206;BME280;1615;53.602;11.418;2022-10-13T00:58:52;101638.63;;;10.84;100.00
3206;BME280;1615;53.602;11.418;2022-10-13T01:01:18;101630.13;;;10.86;100.00
3206;BME280;1615;53.602;11.418;2022-10-13T01:03:44;101631.25;;;10.85;100.00
3206;BME280;1615;53.602;11.418;2022-10-13T01:06:10;101620.53;;;10.83;100.00
3206;BME280;1615;53.602;11.418;2022-10-13T01:08:37;101549.50;;;10.42;100.00
3206;BME280;1615;53.602;11.418;2022-10-13T01:11:17;101612.88;;;10.80;100.00
3206;BME280;1615;53.602;11.418;2022-10-13T01:14:02;101615.31;;;10.82;100.00
3206;BME280;1615;53.602;11.418;2022-10-13T01:16:36;101609.28;;;10.80;100.00
3206;BME280;1615;53.602;11.418;2022-10-13T01:22:07;101602.69;;;10.76;100.00
3206;BME280;1615;53.602;11.418;2022-10-13T01:25:18;101618.34;;;10.75;100.00
3206;BME280;1615;53.602;11.418;2022-10-13T01:30:51;101608.47;;;10.79;100.00
3206;BME280;1615;53.602;11.418;2022-10-13T01:34:05;101606.00;;;10.83;100.00
3206;BME280;1615;53.602;11.418;2022-10-13T01:36:32;101603.81;;;10.80;100.00
3206;BME280;1615;53.602;11.418;2022-10-13T01:39:21;101597.50;;;10.79;100.00
3206;BME280;1615;53.602;11.418;2022-10-13T01:41:51;101599.16;;;10.80;100.00
3206;BME280;1615;53.602;11.418;2022-10-13T01:44:35;101593.66;;;10.80;100.00
3206;BME280;1615;53.602;11.418;2022-10-13T01:47:04;101582.41;;;10.77;100.00
3206;BME280;1615;53.602;11.418;2022-10-13T01:49:32;101588.44;;;10.79;100.00
3206;BME280;1615;53.602;11.418;2022-10-13T01:52:05;101594.75;;;10.79;100.00
3206;BME280;1615;53.602;11.418;2022-10-13T01:54:32;101584.06;;;10.83;100.00
3206;BME280;1615;53.602;11.418;2022-10-13T01:56:57;101592.84;;;10.80;100.00
3206;BME280;1615;53.602;11.418;2022-10-13T01:59:24;101549.53;;;10.57;100.00
3206;BME280;1615;53.602;11.418;2022-10-13T02:01:53;101591.47;;;10.77;100.00
3206;BME280;1615;53.602;11.418;2022-10-13T02:04:44;101581.88;;;10.75;100.00
3206;BME280;1615;53.602;11.418;2022-10-13T02:10:16;101541.56;;;10.40;100.00
3206;BME280;1615;53.602;11.418;2022-10-13T02:12:49;101549.53;;;10.72;100.00
3206;BME280;1615;53.602;11.418;2022-10-13T02:15:20;101558.81;;;10.81;100.00
3206;BME280;1615;53.602;11.418;2022-10-13T02:17:47;101559.38;;;10.83;100.00
3206;BME280;1615;53.602;11.418;2022-10-13T02:20:14;101561.28;;;10.82;100.00
3206;BME280;1615;53.602;11.418;2022-10-13T02:22:44;101554.97;;;10.87;100.00
3206;BME280;1615;53.602;11.418;2022-10-13T02:25:10;101446.44;;;10.26;100.00
3206;BME280;1615;53.602;11.418;2022-10-13T02:27:35;101557.69;;;11.02;100.00
3206;BME280;1615;53.602;11.418;2022-10-13T02:30:01;101515.78;;;10.76;100.00
3206;BME280;1615;53.602;11.418;2022-10-13T02:32:27;101544.53;;;11.04;100.00
3206;BME280;1615;53.602;11.418;2022-10-13T02:34:52;101521.25;;;10.86;100.00
3206;BME280;1615;53.602;11.418;2022-10-13T02:37:18;101534.63;;;11.18;100.00
3206;BME280;1615;53.602;11.418;2022-10-13T02:39:43;101489.72;;;10.84;100.00
3206;BME280;1615;53.602;11.418;2022-10-13T02:42:08;101557.94;;;11.25;100.00
3206;BME280;1615;53.602;11.418;2022-10-13T02:44:34;101549.44;;;11.22;100.00
3206;BME280;1615;53.602;11.418;2022-10-13T02:46:59;101462.56;;;10.72;100.00
3206;BME280;1615;53.602;11.418;2022-10-13T02:49:25;101546.16;;;11.20;100.00
3206;BME280;1615;53.602;11.418;2022-10-13T02:51:51;101536.81;;;11.16;100.00
3206;BME280;1615;53.602;11.418;2022-10-13T02:54:17;101537.94;;;11.10;100.00
3206;BME280;1615;53.602;11.418;2022-10-13T02:56:42;101535.72;;;11.17;100.00
3206;BME280;1615;53.602;11.418;2022-10-13T02:59:07;101533.25;;;11.10;100.00
3206;BME280;1615;53.602;11.418;2022-10-13T03:01:33;101531.34;;;11.06;100.00
3206;BME280;1615;53.602;11.418;2022-10-13T03:03:59;101444.22;;;10.53;100.00
3206;BME280;1615;53.602;11.418;2022-10-13T03:06:25;101541.25;;;11.02;100.00
3206;BME280;1615;53.602;11.418;2022-10-13T03:08:50;101534.94;;;11.01;100.00
3206;BME280;1615;53.602;11.418;2022-10-13T03:11:15;101537.69;;;11.01;100.00
3206;BME280;1615;53.602;11.418;2022-10-13T03:13:41;101439.31;;;10.40;100.00
3206;BME280;1615;53.602;11.418;2022-10-13T03:16:06;101513.81;;;10.82;100.00
3206;BME280;1615;53.602;11.418;2022-10-13T03:18:32;101526.72;;;10.91;100.00
3206;BME280;1615;53.602;11.418;2022-10-13T03:20:59;101532.50;;;10.85;100.00
3206;BME280;1615;53.602;11.418;2022-10-13T03:23:25;101530.28;;;10.82;100.00
3206;BME280;1615;53.602;11.418;2022-10-13T03:25:50;101516.31;;;10.73;100.00
3206;BME280;1615;53.602;11.418;2022-10-13T03:28:16;101523.72;;;10.78;100.00
3206;BME280;1615;53.602;11.418;2022-10-13T03:30:41;101529.22;;;10.78;100.00
3206;BME280;1615;53.602;11.418;2022-10-13T03:33:06;101508.38;;;10.57;100.00
3206;BME280;1615;53.602;11.418;2022-10-13T03:35:31;101525.38;;;10.39;100.00
3206;BME280;1615;53.602;11.418;2022-10-13T03:37:58;101386.69;;;9.68;100.00
3206;BME280;1615;53.602;11.418;2022-10-13T03:40:23;101528.94;;;10.44;100.00
3206;BME280;1615;53.602;11.418;2022-10-13T03:42:48;101436.53;;;9.85;100.00
3206;BME280;1615;53.602;11.418;2022-10-13T03:45:14;101534.41;;;10.24;100.00
3206;BME280;1615;53.602;11.418;2022-10-13T03:47:39;101539.63;;;10.21;100.00
3206;BME280;1615;53.602;11.418;2022-10-13T03:50:05;101541.25;;;10.22;100.00
3206;BME280;1615;53.602;11.418;2022-10-13T03:52:30;101542.63;;;10.19;100.00
3206;BME280;1615;53.602;11.418;2022-10-13T03:54:56;101538.50;;;10.17;100.00
3206;BME280;1615;53.602;11.418;2022-10-13T03:57:21;101541.25;;;10.17;100.00
3206;BME280;1615;53.602;11.418;2022-10-13T03:59:46;101529.72;;;10.05;100.00
3206;BME280;1615;53.602;11.418;2022-10-13T04:02:12;101525.56;;;10.02;100.00
3206;BME280;1615;53.602;11.418;2022-10-13T04:04:37;101527.47;;;9.97;100.00
3206;BME280;1615;53.602;11.418;2022-10-13T04:07:02;101535.69;;;10.02;100.00
3206;BME280;1615;53.602;11.418;2022-10-13T04:09:28;101529.19;;;10.08;100.00
3206;BME280;1615;53.602;11.418;2022-10-13T04:11:53;101526.72;;;10.06;100.00
3206;BME280;1615;53.602;11.418;2022-10-13T04:14:19;101524.25;;;10.10;100.00
3206;BME280;1615;53.602;11.418;2022-10-13T04:16:45;101524.78;;;10.12;100.00
3206;BME280;1615;53.602;11.418;2022-10-13T04:19:12;101511.91;;;10.07;100.00
3206;BME280;1615;53.602;11.418;2022-10-13T04:21:38;101515.50;;;10.08;100.00
3206;BME280;1615;53.602;11.418;2022-10-13T04:24:05;101521.53;;;10.10;100.00
3206;BME280;1615;53.602;11.418;2022-10-13T04:26:33;101523.72;;;10.08;100.00
3206;BME280;1615;53.602;11.418;2022-10-13T04:29:00;101510.25;;;10.01;100.00
3206;BME280;1615;53.602;11.418;2022-10-13T04:31:27;101498.72;;;9.99;100.00
3206;BME280;1615;53.602;11.418;2022-10-13T04:33:53;101508.31;;;9.92;100.00
3206;BME280;1615;53.602;11.418;2022-10-13T04:36:19;101500.63;;;9.89;100.00
3206;BME280;1615;53.602;11.418;2022-10-13T04:38:45;101502.81;;;9.87;100.00
3206;BME280;1615;53.602;11.418;2022-10-13T04:41:11;101508.84;;;9.84;100.00
3206;BME280;1615;53.602;11.418;2022-10-13T04:43:37;101503.63;;;9.82;100.00
3206;BME280;1615;53.602;11.418;2022-10-13T04:46:12;101499.22;;;9.81;100.00
3206;BME280;1615;53.602;11.418;2022-10-13T04:48:38;101464.38;;;9.52;100.00
3206;BME280;1615;53.602;11.418;2022-10-13T04:51:06;101455.88;;;9.43;100.00
3206;BME280;1615;53.602;11.418;2022-10-13T04:53:32;101496.19;;;9.68;100.00
3206;BME280;1615;53.602;11.418;2022-10-13T04:56:02;101500.50;;;9.54;100.00
3206;BME280;1615;53.602;11.418;2022-10-13T04:58:28;101495.06;;;9.59;100.00
3206;BME280;1615;53.602;11.418;2022-10-13T05:00:53;101493.16;;;9.59;100.00
3206;BME280;1615;53.602;11.418;2022-10-13T05:03:18;101233.56;;;8.05;100.00
3206;BME280;1615;53.602;11.418;2022-10-13T05:05:44;101353.59;;;8.78;100.00
3206;BME280;1615;53.602;11.418;2022-10-13T05:08:09;101488.50;;;9.60;100.00
3206;BME280;1615;53.602;11.418;2022-10-13T05:10:34;101494.28;;;9.63;100.00
3206;BME280;1615;53.602;11.418;2022-10-13T05:13:00;101493.16;;;9.59;100.00
3206;BME280;1615;53.602;11.418;2022-10-13T05:15:25;101494.78;;;9.60;100.00
3206;BME280;1615;53.602;11.418;2022-10-13T05:17:50;101493.44;;;9.63;100.00
3206;BME280;1615;53.602;11.418;2022-10-13T05:20:16;101492.34;;;9.69;100.00
3206;BME280;1615;53.602;11.418;2022-10-13T05:22:42;101487.47;;;9.76;100.00
3206;BME280;1615;53.602;11.418;2022-10-13T05:25:07;101485.00;;;9.79;100.00
3206;BME280;1615;53.602;11.418;2022-10-13T05:27:32;101480.09;;;9.91;100.00
3206;BME280;1615;53.602;11.418;2022-10-13T05:29:58;101478.16;;;9.97;100.00
3206;BME280;1615;53.602;11.418;2022-10-13T05:32:23;101474.06;;;9.99;100.00
3206;BME280;1615;53.602;11.418;2022-10-13T05:34:48;101466.16;;;10.03;100.00
3206;BME280;1615;53.602;11.418;2022-10-13T05:37:14;101455.19;;;9.93;100.00
3206;BME280;1615;53.602;11.418;2022-10-13T05:39:41;101421.75;;;9.76;100.00
3206;BME280;1615;53.602;11.418;2022-10-13T05:42:06;101476.06;;;10.14;100.00
3206;BME280;1615;53.602;11.418;2022-10-13T05:44:32;101476.06;;;10.19;100.00
3206;BME280;1615;53.602;11.418;2022-10-13T05:46:57;101477.69;;;10.20;100.00
3206;BME280;1615;53.602;11.418;2022-10-13T05:49:22;101479.34;;;10.21;100.00
3206;BME280;1615;53.602;11.418;2022-10-13T05:51:52;101480.97;;;10.22;100.00
3206;BME280;1615;53.602;11.418;2022-10-13T05:54:25;101460.97;;;10.16;100.00
3206;BME280;1615;53.602;11.418;2022-10-13T05:56:57;101465.91;;;10.29;100.00
3206;BME280;1615;53.602;11.418;2022-10-13T05:59:25;101470.28;;;10.35;100.00
3206;BME280;1615;53.602;11.418;2022-10-13T06:01:52;101467.00;;;10.23;100.00
3206;BME280;1615;53.602;11.418;2022-10-13T06:04:20;101473.28;;;10.34;100.00
3206;BME280;1615;53.602;11.418;2022-10-13T06:06:47;101474.66;;;10.36;100.00
3206;BME280;1615;53.602;11.418;2022-10-13T06:09:14;101363.94;;;9.67;100.00
3206;BME280;1615;53.602;11.418;2022-10-13T06:11:39;101473.56;;;10.42;100.00
3206;BME280;1615;53.602;11.418;2022-10-13T06:14:04;101468.91;;;10.48;100.00
3206;BME280;1615;53.602;11.418;2022-10-13T06:16:30;101475.50;;;10.52;100.00
3206;BME280;1615;53.602;11.418;2022-10-13T06:18:55;101472.75;;;10.57;100.00
3206;BME280;1615;53.602;11.418;2022-10-13T06:21:20;101463.16;;;10.64;100.00
3206;BME280;1615;53.602;11.418;2022-10-13T06:23:46;101461.19;;;10.70;100.00
3206;BME280;1615;53.602;11.418;2022-10-13T06:26:11;101422.31;;;10.43;100.00
3206;BME280;1615;53.602;11.418;2022-10-13T06:28:36;101466.16;;;10.73;100.00
3206;BME280;1615;53.602;11.418;2022-10-13T06:31:04;101463.41;;;10.78;100.00
3206;BME280;1615;53.602;11.418;2022-10-13T06:33:29;101458.72;;;10.78;100.00
3206;BME280;1615;53.602;11.418;2022-10-13T06:35:55;101462.28;;;10.84;100.00
3206;BME280;1615;53.602;11.418;2022-10-13T06:38:20;101453.22;;;10.88;100.00
3206;BME280;1615;53.602;11.418;2022-10-13T06:40:45;101451.53;;;10.97;100.00
3206;BME280;1615;53.602;11.418;2022-10-13T06:43:11;101443.28;;;11.02;100.00
3206;BME280;1615;53.602;11.418;2022-10-13T06:45:36;101446.81;;;11.08;100.00
3206;BME280;1615;53.602;11.418;2022-10-13T06:48:02;101446.03;;;11.07;100.00
3206;BME280;1615;53.602;11.418;2022-10-13T06:50:27;101428.47;;;11.03;100.00
3206;BME280;1615;53.602;11.418;2022-10-13T06:52:54;101442.94;;;11.19;100.00
3206;BME280;1615;53.602;11.418;2022-10-13T06:55:20;101437.44;;;11.19;100.00
3206;BME280;1615;53.602;11.418;2022-10-13T06:57:45;101444.53;;;11.30;100.00
3206;BME280;1615;53.602;11.418;2022-10-13T07:00:11;101439.84;;;11.40;100.00
3206;BME280;1615;53.602;11.418;2022-10-13T07:02:36;101441.16;;;11.48;100.00
3206;BME280;1615;53.602;11.418;2022-10-13T07:05:05;101401.69;;;11.34;100.00
3206;BME280;1615;53.602;11.418;2022-10-13T07:07:30;101424.66;;;11.63;100.00
3206;BME280;1615;53.602;11.418;2022-10-13T07:09:55;101440.94;;;11.88;100.00
3206;BME280;1615;53.602;11.418;2022-10-13T07:12:21;101435.38;;;11.98;100.00
3206;BME280;1615;53.602;11.418;2022-10-13T07:14:47;101434.47;;;12.07;100.00
3206;BME280;1615;53.602;11.418;2022-10-13T07:17:12;101422.59;;;12.17;100.00
3206;BME280;1615;53.602;11.418;2022-10-13T07:19:37;101331.31;;;11.53;100.00
3206;BME280;1615;53.602;11.418;2022-10-13T07:22:03;101433.50;;;12.27;100.00
3206;BME280;1615;53.602;11.418;2022-10-13T07:24:28;101387.19;;;12.10;100.00
3206;BME280;1615;53.602;11.418;2022-10-13T07:26:54;101425.66;;;12.44;100.00
3206;BME280;1615;53.602;11.418;2022-10-13T07:29:19;101420.09;;;12.49;100.00
3206;BME280;1615;53.602;11.418;2022-10-13T07:31:45;101402.28;;;12.41;100.00
3206;BME280;1615;53.602;11.418;2022-10-13T07:34:11;101416.41;;;12.58;100.00
3206;BME280;1615;53.602;11.418;2022-10-13T07:36:36;101435.91;;;12.62;100.00
3206;BME280;1615;53.602;11.418;2022-10-13T07:39:04;101446.25;;;12.75;100.00
3206;BME280;1615;53.602;11.418;2022-10-13T07:41:30;101437.34;;;12.83;100.00
3206;BME280;1615;53.602;11.418;2022-10-13T07:43:55;101423.59;;;12.83;100.00
3206;BME280;1615;53.602;11.418;2022-10-13T07:46:21;101353.78;;;12.50;100.00
3206;BME280;1615;53.602;11.418;2022-10-13T07:48:47;101432.03;;;13.15;100.00
3206;BME280;1615;53.602;11.418;2022-10-13T07:51:13;101424.84;;;13.19;100.00
3206;BME280;1615;53.602;11.418;2022-10-13T07:53:39;101414.94;;;13.18;100.00
3206;BME280;1615;53.602;11.418;2022-10-13T07:56:07;101356.41;;;12.84;100.00
3206;BME280;1615;53.602;11.418;2022-10-13T07:58:35;101397.09;;;13.15;100.00
3206;BME280;1615;53.602;11.418;2022-10-13T08:01:01;101406.63;;;13.23;100.00
3206;BME280;1615;53.602;11.418;2022-10-13T08:03:27;101412.44;;;13.40;100.00
3206;BME280;1615;53.602;11.418;2022-10-13T08:05:54;101370.44;;;13.29;100.00
3206;BME280;1615;53.602;11.418;2022-10-13T08:08:20;101420.88;;;13.48;100.00
3206;BME280;1615;53.602;11.418;2022-10-13T08:10:45;101425.78;;;13.70;100.00
3206;BME280;1615;53.602;11.418;2022-10-13T08:13:11;101366.75;;;13.57;100.00
3206;BME280;1615;53.602;11.418;2022-10-13T08:15:40;101418.75;;;13.96;100.00
3206;BME280;1615;53.602;11.418;2022-10-13T08:18:06;101423.06;;;14.02;100.00
3206;BME280;1615;53.602;11.418;2022-10-13T08:20:32;101284.34;;;13.24;100.00
3206;BME280;1615;53.602;11.418;2022-10-13T08:22:58;101291.56;;;13.38;100.00
3206;BME280;1615;53.602;11.418;2022-10-13T08:25:23;101403.81;;;14.15;100.00
3206;BME280;1615;53.602;11.418;2022-10-13T08:27:49;101408.00;;;14.13;100.00
3206;BME280;1615;53.602;11.418;2022-10-13T08:30:14;101407.88;;;14.23;100.00
3206;BME280;1615;53.602;11.418;2022-10-13T08:32:39;101415.84;;;14.24;100.00
3206;BME280;1615;53.602;11.418;2022-10-13T08:35:05;101414.94;;;14.29;100.00
3206;BME280;1615;53.602;11.418;2022-10-13T08:37:31;101377.25;;;14.06;100.00
3206;BME280;1615;53.602;11.418;2022-10-13T08:39:56;101368.97;;;14.06;100.00
3206;BME280;1615;53.602;11.418;2022-10-13T08:42:22;101405.47;;;14.35;100.00
3206;BME280;1615;53.602;11.418;2022-10-13T08:44:53;101383.50;;;14.30;100.00
3206;BME280;1615;53.602;11.418;2022-10-13T08:47:45;101390.28;;;14.51;100.00
3206;BME280;1615;53.602;11.418;2022-10-13T08:50:17;101406.13;;;14.59;100.00
3206;BME280;1615;53.602;11.418;2022-10-13T08:52:56;101397.25;;;14.62;100.00
3206;BME280;1615;53.602;11.418;2022-10-13T08:55:40;101391.00;;;14.70;100.00
3206;BME280;1615;53.602;11.418;2022-10-13T08:58:12;101377.09;;;14.75;100.00
3206;BME280;1615;53.602;11.418;2022-10-13T09:00:40;101385.50;;;14.83;100.00
3206;BME280;1615;53.602;11.418;2022-10-13T09:03:22;101393.28;;;14.95;100.00
3206;BME280;1615;53.602;11.418;2022-10-13T09:05:58;101380.16;;;15.00;100.00
3206;BME280;1615;53.602;11.418;2022-10-13T09:08:51;101375.25;;;15.11;100.00
3206;BME280;1615;53.602;11.418;2022-10-13T09:11:18;101366.78;;;15.21;100.00
3206;BME280;1615;53.602;11.418;2022-10-13T09:13:43;101370.94;;;15.32;100.00
3206;BME280;1615;53.602;11.418;2022-10-13T09:16:09;101370.75;;;15.42;100.00
3206;BME280;1615;53.602;11.418;2022-10-13T09:18:34;101365.84;;;15.39;100.00
3206;BME280;1615;53.602;11.418;2022-10-13T09:21:22;101304.06;;;15.08;100.00
3206;BME280;1615;53.602;11.418;2022-10-13T09:23:51;101365.00;;;15.52;100.00
3206;BME280;1615;53.602;11.418;2022-10-13T09:26:21;101345.78;;;15.47;100.00
3206;BME280;1615;53.602;11.418;2022-10-13T09:28:47;101376.69;;;15.71;100.00
3206;BME280;1615;53.602;11.418;2022-10-13T09:33:43;101368.34;;;15.84;100.00
3206;BME280;1615;53.602;11.418;2022-10-13T09:36:18;101369.84;;;15.90;100.00
3206;BME280;1615;53.602;11.418;2022-10-13T09:39:13;101372.44;;;16.09;100.00
3206;BME280;1615;53.602;11.418;2022-10-13T09:41:40;101369.41;;;16.19;100.00
3206;BME280;1615;53.602;11.418;2022-10-13T09:44:11;101360.50;;;16.22;100.00
3206;BME280;1615;53.602;11.418;2022-10-13T09:46:52;101364.25;;;16.26;100.00
3206;BME280;1615;53.602;11.418;2022-10-13T09:51:44;101351.66;;;16.42;100.00
3206;BME280;1615;53.602;11.418;2022-10-13T09:54:35;101350.06;;;16.49;100.00
3206;BME280;1615;53.602;11.418;2022-10-13T09:57:06;101348.03;;;16.63;100.00
3206;BME280;1615;53.602;11.418;2022-10-13T09:59:42;101339.94;;;16.75;100.00
3206;BME280;1615;53.602;11.418;2022-10-13T10:05:04;101321.72;;;16.91;100.00
3206;BME280;1615;53.602;11.418;2022-10-13T10:07:31;101325.81;;;16.94;100.00
3206;BME280;1615;53.602;11.418;2022-10-13T10:10:00;101332.97;;;16.95;100.00
3206;BME280;1615;53.602;11.418;2022-10-13T10:12:31;101334.28;;;16.97;100.00
3206;BME280;1615;53.602;11.418;2022-10-13T10:14:59;101329.25;;;16.99;100.00
3206;BME280;1615;53.602;11.418;2022-10-13T10:17:40;101331.88;;;17.04;100.00
3206;BME280;1615;53.602;11.418;2022-10-13T10:23:06;101294.97;;;16.70;100.00
3206;BME280;1615;53.602;11.418;2022-10-13T10:25:57;101340.66;;;16.98;100.00
3206;BME280;1615;53.602;11.418;2022-10-13T10:31:37;101338.75;;;17.07;100.00
3206;BME280;1615;53.602;11.418;2022-10-13T10:36:52;101333.69;;;17.09;100.00
3206;BME280;1615;53.602;11.418;2022-10-13T10:40:07;101339.56;;;17.16;100.00
3206;BME280;1615;53.602;11.418;2022-10-13T10:45:16;101317.94;;;17.43;100.00
3206;BME280;1615;53.602;11.418;2022-10-13T10:47:44;101308.31;;;17.49;100.00
3206;BME280;1615;53.602;11.418;2022-10-13T10:50:14;101303.75;;;17.62;100.00
3206;BME280;1615;53.602;11.418;2022-10-13T10:52:54;101187.31;;;16.94;100.00
3206;BME280;1615;53.602;11.418;2022-10-13T10:58:52;101290.84;;;17.83;100.00
3206;BME280;1615;53.602;11.418;2022-10-13T11:01:41;101293.31;;;17.76;100.00
3206;BME280;1615;53.602;11.418;2022-10-13T11:06:52;101285.78;;;17.85;100.00
3206;BME280;1615;53.602;11.418;2022-10-13T11:19:52;101281.78;;;18.20;100.00
3206;BME280;1615;53.602;11.418;2022-10-13T11:22:20;101272.66;;;18.11;100.00
3206;BME280;1615;53.602;11.418;2022-10-13T11:24:57;101226.16;;;17.99;100.00
3206;BME280;1615;53.602;11.418;2022-10-13T11:29:58;101273.41;;;18.37;100.00
3206;BME280;1615;53.602;11.418;2022-10-13T11:35:11;101270.75;;;18.49;100.00
3206;BME280;1615;53.602;11.418;2022-10-13T11:40:40;101263.94;;;18.38;100.00
3206;BME280;1615;53.602;11.418;2022-10-13T11:51:06;101265.94;;;18.20;100.00
3206;BME280;1615;53.602;11.418;2022-10-13T11:53:49;101240.47;;;18.18;100.00
3206;BME280;1615;53.602;11.418;2022-10-13T11:56:21;101252.00;;;18.29;100.00
3206;BME280;1615;53.602;11.418;2022-10-13T11:58:47;101205.22;;;18.19;100.00
3206;BME280;1615;53.602;11.418;2022-10-13T12:01:14;101233.72;;;18.36;100.00
3206;BME280;1615;53.602;11.418;2022-10-13T12:03:43;101237.59;;;18.44;100.00
3206;BME280;1615;53.602;11.418;2022-10-13T12:06:30;101231.25;;;18.43;100.00
3206;BME280;1615;53.602;11.418;2022-10-13T12:09:04;101239.22;;;18.45;100.00
3206;BME280;1615;53.602;11.418;2022-10-13T12:11:34;101208.41;;;18.38;100.00
3206;BME280;1615;53.602;11.418;2022-10-13T12:14:02;101236.44;;;18.53;100.00
3206;BME280;1615;53.602;11.418;2022-10-13T12:16:29;101221.72;;;18.53;100.00
3206;BME280;1615;53.602;11.418;2022-10-13T12:19:14;101221.69;;;18.61;100.00
3206;BME280;1615;53.602;11.418;2022-10-13T12:21:57;101211.84;;;18.64;100.00
3206;BME280;1615;53.602;11.418;2022-10-13T12:24:26;101211.84;;;18.64;100.00
3206;BME280;1615;53.602;11.418;2022-10-13T12:26:52;101219.81;;;18.74;100.00
3206;BME280;1615;53.602;11.418;2022-10-13T12:29:21;101204.75;;;18.75;100.00
3206;BME280;1615;53.602;11.418;2022-10-13T12:31:49;101198.16;;;18.88;100.00
3206;BME280;1615;53.602;11.418;2022-10-13T12:34:33;101208.91;;;18.89;100.00
3206;BME280;1615;53.602;11.418;2022-10-13T12:37:02;101203.00;;;18.91;100.00
3206;BME280;1615;53.602;11.418;2022-10-13T12:39:30;101199.63;;;18.85;100.00
3206;BME280;1615;53.602;11.418;2022-10-13T12:41:57;101210.88;;;18.89;100.00
3206;BME280;1615;53.602;11.418;2022-10-13T12:44:26;101100.69;;;18.23;100.00
3206;BME280;1615;53.602;11.418;2022-10-13T12:46:56;101202.25;;;18.82;100.00
3206;BME280;1615;53.602;11.418;2022-10-13T12:49:26;101195.38;;;18.88;100.00
3206;BME280;1615;53.602;11.418;2022-10-13T12:52:12;101198.00;;;19.05;100.00
3206;BME280;1615;53.602;11.418;2022-10-13T12:54:53;101197.19;;;19.04;100.00
3206;BME280;1615;53.602;11.418;2022-10-13T12:57:43;101198.47;;;19.07;100.00
3206;BME280;1615;53.602;11.418;2022-10-13T13:02:56;101198.41;;;18.95;100.00
3206;BME280;1615;53.602;11.418;2022-10-13T13:05:29;101196.28;;;18.92;100.00
3206;BME280;1615;53.602;11.418;2022-10-13T13:07:56;101185.94;;;19.01;100.00
3206;BME280;1615;53.602;11.418;2022-10-13T13:10:21;101182.69;;;18.99;100.00
3206;BME280;1615;53.602;11.418;2022-10-13T13:12:48;101181.94;;;19.10;100.00
3206;BME280;1615;53.602;11.418;2022-10-13T13:20:52;101109.34;;;18.91;100.00
3206;BME280;1615;53.602;11.418;2022-10-13T13:23:17;101122.75;;;19.10;100.00
3206;BME280;1615;53.602;11.418;2022-10-13T13:25:46;101167.38;;;19.46;100.00
3206;BME280;1615;53.602;11.418;2022-10-13T13:28:13;101164.38;;;19.51;100.00
3206;BME280;1615;53.602;11.418;2022-10-13T13:30:39;101172.31;;;19.61;100.00
3206;BME280;1615;53.602;11.418;2022-10-13T13:33:05;101152.38;;;19.59;100.00
3206;BME280;1615;53.602;11.418;2022-10-13T13:35:30;101163.75;;;19.66;100.00
3206;BME280;1615;53.602;11.418;2022-10-13T13:37:55;101171.97;;;19.62;100.00
3206;BME280;1615;53.602;11.418;2022-10-13T13:40:26;101158.06;;;19.62;100.00
3206;BME280;1615;53.602;11.418;2022-10-13T13:42:52;101164.88;;;19.53;100.00
3206;BME280;1615;53.602;11.418;2022-10-13T13:45:20;101167.88;;;19.48;100.00
3206;BME280;1615;53.602;11.418;2022-10-13T13:47:46;101163.81;;;19.45;100.00
3206;BME280;1615;53.602;11.418;2022-10-13T13:50:23;101161.34;;;19.32;100.00
3206;BME280;1615;53.602;11.418;2022-10-13T13:52:50;101183.00;;;19.18;100.00
3206;BME280;1615;53.602;11.418;2022-10-13T13:55:15;101153.00;;;19.32;100.00
3206;BME280;1615;53.602;11.418;2022-10-13T13:57:41;101162.75;;;19.38;100.00
3206;BME280;1615;53.602;11.418;2022-10-13T14:00:07;101168.50;;;19.33;100.00
3206;BME280;1615;53.602;11.418;2022-10-13T14:02:34;101176.19;;;19.36;100.00
3206;BME280;1615;53.602;11.418;2022-10-13T14:04:59;101173.63;;;19.31;100.00
3206;BME280;1615;53.602;11.418;2022-10-13T14:07:24;101165.59;;;19.29;100.00
3206;BME280;1615;53.602;11.418;2022-10-13T14:09:50;101171.97;;;19.30;100.00